createdAt,value
2017-12-21T00:00:05.624Z,20.79
2017-12-21T00:00:34.863Z,20.85
2017-12-21T00:01:46.544Z,20.82
2017-12-21T00:02:16.264Z,20.87
2017-12-21T00:02:44.561Z,20.88
2017-12-21T00:03:12.583Z,20.89
2017-12-21T00:03:41.433Z,20.91
2017-12-21T00:04:10.242Z,20.98
2017-12-21T00:04:38.260Z,20.94
2017-12-21T00:05:22.600Z,21.01
2017-12-21T00:05:50.971Z,20.98
2017-12-21T00:06:19.433Z,21.09
2017-12-21T00:06:47.913Z,21.04
2017-12-21T00:07:16.255Z,21.1
2017-12-21T00:07:44.690Z,21.1
2017-12-21T00:09:39.261Z,21.13
2017-12-21T00:10:08.140Z,21.13
2017-12-21T00:10:37.870Z,21.07
2017-12-21T00:11:05.953Z,21.14
2017-12-21T00:11:34.185Z,21.07
2017-12-21T00:12:17.170Z,21.09
2017-12-21T00:12:59.625Z,21.16
2017-12-21T00:14:39.931Z,21.22
2017-12-21T00:15:52.060Z,21.29
2017-12-21T00:16:20.094Z,21.34
2017-12-21T00:16:48.036Z,21.37
2017-12-21T00:17:15.968Z,21.29
2017-12-21T00:17:44.318Z,21.22
2017-12-21T00:18:12.357Z,21.29
2017-12-21T00:18:41.211Z,21.38
2017-12-21T00:19:09.189Z,21.4
2017-12-21T00:19:37.837Z,21.27
2017-12-21T00:20:05.858Z,21.32
2017-12-21T00:20:34.720Z,21.32
2017-12-21T00:21:03.172Z,21.43
2017-12-21T00:21:45.721Z,21.35
2017-12-21T00:22:14.584Z,21.34
2017-12-21T00:22:42.837Z,21.31
2017-12-21T00:23:11.285Z,21.32
2017-12-21T00:23:39.911Z,21.4
2017-12-21T00:24:22.468Z,21.38
2017-12-21T00:25:48.515Z,21.49
2017-12-21T00:26:19.194Z,21.53
2017-12-21T00:27:02.445Z,21.46
2017-12-21T00:27:30.664Z,21.5
2017-12-21T00:27:59.257Z,21.43
2017-12-21T00:28:27.311Z,21.42
2017-12-21T00:28:56.452Z,21.46
2017-12-21T00:29:24.298Z,21.5
2017-12-21T00:30:07.438Z,21.52
2017-12-21T00:31:32.349Z,21.52
2017-12-21T00:32:02.137Z,21.46
2017-12-21T00:32:30.044Z,21.46
2017-12-21T00:33:42.748Z,21.5
2017-12-21T00:34:11.315Z,21.46
2017-12-21T00:34:40.760Z,21.56
2017-12-21T00:35:10.410Z,21.47
2017-12-21T00:35:38.255Z,21.52
2017-12-21T00:38:45.578Z,21.62
2017-12-21T00:39:14.008Z,21.5
2017-12-21T00:39:42.037Z,21.68
2017-12-21T00:40:26.725Z,21.64
2017-12-21T00:40:55.153Z,21.71
2017-12-21T00:41:24.766Z,21.72
2017-12-21T00:41:54.462Z,21.65
2017-12-21T00:42:36.929Z,21.72
2017-12-21T00:43:06.283Z,21.67
2017-12-21T00:43:34.817Z,21.69
2017-12-21T00:44:03.965Z,21.69
2017-12-21T00:44:31.990Z,21.67
2017-12-21T00:45:00.004Z,21.71
2017-12-21T00:45:28.789Z,21.67
2017-12-21T00:46:12.561Z,21.64
2017-12-21T00:46:41.369Z,21.65
2017-12-21T00:47:09.812Z,21.64
2017-12-21T00:48:07.289Z,21.59
2017-12-21T00:48:35.733Z,21.46
2017-12-21T00:49:03.756Z,21.28
2017-12-21T00:49:48.448Z,21.1
2017-12-21T00:50:16.350Z,20.87
2017-12-21T00:50:45.735Z,20.69
2017-12-21T00:51:14.546Z,20.64
2017-12-21T00:51:42.948Z,20.61
2017-12-21T00:52:11.894Z,20.39
2017-12-21T00:52:40.569Z,20.29
2017-12-21T00:54:36.259Z,20.03
2017-12-21T00:55:04.611Z,20.05
2017-12-21T00:55:33.112Z,19.99
2017-12-21T00:56:04.169Z,19.94
2017-12-21T00:57:35.021Z,20.17
2017-12-21T00:58:03.027Z,20.1
2017-12-21T00:58:32.362Z,20.01
2017-12-21T00:59:00.281Z,20.06
2017-12-21T00:59:28.578Z,20.16
2017-12-21T00:59:58.592Z,20.06
2017-12-21T01:00:27.676Z,20.02
2017-12-21T01:00:56.712Z,20.2
2017-12-21T01:01:24.722Z,20.21
2017-12-21T01:01:54.163Z,20.21
2017-12-21T01:02:37.490Z,20.23
2017-12-21T01:03:06.315Z,20.26
2017-12-21T01:03:34.841Z,20.31
2017-12-21T01:04:40.677Z,20.38
2017-12-21T01:05:08.591Z,20.36
2017-12-21T01:05:37.149Z,20.48
2017-12-21T01:06:05.968Z,20.35
2017-12-21T01:06:34.449Z,20.35
2017-12-21T01:07:02.938Z,20.33
2017-12-21T01:07:31.176Z,20.26
2017-12-21T01:07:59.710Z,20.29
2017-12-21T01:08:43.105Z,20.14
2017-12-21T01:09:11.856Z,20.21
2017-12-21T01:09:40.283Z,20.33
2017-12-21T01:10:08.310Z,20.32
2017-12-21T01:11:19.978Z,20.36
2017-12-21T01:11:47.984Z,20.32
2017-12-21T01:12:17.435Z,20.35
2017-12-21T01:13:00.137Z,20.26
2017-12-21T01:13:44.404Z,20.17
2017-12-21T01:14:12.315Z,20.23
2017-12-21T01:15:09.305Z,20.08
2017-12-21T01:15:37.829Z,20.03
2017-12-21T01:16:06.294Z,19.92
2017-12-21T01:17:18.681Z,19.92
2017-12-21T01:17:46.713Z,19.91
2017-12-21T01:18:30.055Z,19.91
2017-12-21T01:19:13.073Z,20.01
2017-12-21T01:19:44.528Z,19.95
2017-12-21T01:20:27.037Z,19.91
2017-12-21T01:20:54.962Z,20.05
2017-12-21T01:21:38.562Z,19.92
2017-12-21T01:22:07.888Z,19.84
2017-12-21T01:22:36.664Z,19.83
2017-12-21T01:23:19.212Z,19.99
2017-12-21T01:23:47.749Z,19.91
2017-12-21T01:24:16.414Z,20.08
2017-12-21T01:24:44.838Z,20.05
2017-12-21T01:25:14.057Z,20.06
2017-12-21T01:25:42.067Z,20.06
2017-12-21T01:26:10.707Z,19.98
2017-12-21T01:27:07.790Z,20.06
2017-12-21T01:27:36.213Z,20.08
2017-12-21T01:28:34.211Z,20.06
2017-12-21T01:29:02.712Z,20.03
2017-12-21T01:29:31.062Z,20.1
2017-12-21T01:29:59.503Z,19.94
2017-12-21T01:31:27.227Z,19.86
2017-12-21T01:31:55.165Z,19.81
2017-12-21T01:32:23.200Z,19.91
2017-12-21T01:32:51.106Z,19.92
2017-12-21T01:33:19.140Z,19.98
2017-12-21T01:33:48.536Z,19.91
2017-12-21T01:35:42.575Z,19.95
2017-12-21T01:36:11.752Z,19.96
2017-12-21T01:36:39.679Z,19.91
2017-12-21T01:37:07.608Z,19.98
2017-12-21T01:37:36.078Z,19.99
2017-12-21T01:38:06.933Z,20.06
2017-12-21T01:38:36.490Z,19.94
2017-12-21T01:39:06.049Z,19.96
2017-12-21T01:39:34.091Z,19.99
2017-12-21T01:40:17.388Z,19.96
2017-12-21T01:40:45.757Z,19.92
2017-12-21T01:41:14.575Z,20.02
2017-12-21T01:42:41.964Z,19.95
2017-12-21T01:43:09.985Z,19.96
2017-12-21T01:44:22.104Z,19.87
2017-12-21T01:44:50.463Z,19.94
2017-12-21T01:45:18.675Z,19.95
2017-12-21T01:45:48.582Z,19.95
2017-12-21T01:46:17.654Z,19.91
2017-12-21T01:46:46.907Z,19.88
2017-12-21T01:47:30.153Z,19.91
2017-12-21T01:47:58.180Z,20.03
2017-12-21T01:48:27.805Z,19.95
2017-12-21T01:48:56.401Z,19.92
2017-12-21T01:49:24.406Z,19.92
2017-12-21T01:49:52.338Z,19.92
2017-12-21T01:50:22.362Z,19.92
2017-12-21T01:50:50.807Z,19.98
2017-12-21T01:51:19.276Z,19.86
2017-12-21T01:52:58.871Z,19.91
2017-12-21T01:53:28.529Z,19.98
2017-12-21T01:53:56.460Z,19.87
2017-12-21T01:54:24.484Z,19.94
2017-12-21T01:54:54.144Z,19.84
2017-12-21T01:55:54.833Z,19.96
2017-12-21T01:56:23.278Z,19.98
2017-12-21T01:57:35.612Z,19.94
2017-12-21T01:58:04.070Z,19.84
2017-12-21T01:58:32.112Z,19.86
2017-12-21T01:59:00.100Z,19.8
2017-12-21T01:59:28.466Z,19.81
2017-12-21T01:59:56.851Z,19.81
2017-12-21T02:00:25.712Z,19.8
2017-12-21T02:00:54.131Z,19.86
2017-12-21T02:01:23.078Z,19.84
2017-12-21T02:01:52.312Z,19.83
2017-12-21T02:02:21.236Z,19.77
2017-12-21T02:02:49.163Z,19.81
2017-12-21T02:03:17.613Z,19.76
2017-12-21T02:03:45.612Z,19.76
2017-12-21T02:04:14.053Z,19.61
2017-12-21T02:04:42.928Z,19.61
2017-12-21T02:05:10.941Z,19.59
2017-12-21T02:05:40.763Z,19.61
2017-12-21T02:06:09.114Z,19.55
2017-12-21T02:06:37.037Z,19.63
2017-12-21T02:07:05.503Z,19.59
2017-12-21T02:07:34.686Z,19.73
2017-12-21T02:08:03.603Z,19.63
2017-12-21T02:08:46.555Z,19.71
2017-12-21T02:09:15.325Z,19.59
2017-12-21T02:09:43.762Z,19.61
2017-12-21T02:10:12.556Z,19.65
2017-12-21T02:10:40.490Z,19.58
2017-12-21T02:11:09.680Z,19.63
2017-12-21T02:11:38.464Z,19.56
2017-12-21T02:12:06.889Z,19.69
2017-12-21T02:12:35.755Z,19.59
2017-12-21T02:13:04.511Z,19.48
2017-12-21T02:13:33.163Z,19.54
2017-12-21T02:14:02.434Z,19.51
2017-12-21T02:14:30.988Z,19.65
2017-12-21T02:14:59.645Z,19.59
2017-12-21T02:15:28.214Z,19.71
2017-12-21T02:15:56.744Z,19.76
2017-12-21T02:16:26.497Z,19.83
2017-12-21T02:16:55.117Z,19.78
2017-12-21T02:17:23.364Z,19.83
2017-12-21T02:17:51.371Z,19.86
2017-12-21T02:18:20.084Z,19.78
2017-12-21T02:19:32.246Z,19.86
2017-12-21T02:20:00.570Z,19.86
2017-12-21T02:20:46.570Z,19.81
2017-12-21T02:21:15.075Z,19.83
2017-12-21T02:21:42.993Z,19.86
2017-12-21T02:22:10.933Z,19.86
2017-12-21T02:22:38.943Z,19.91
2017-12-21T02:23:08.160Z,19.84
2017-12-21T02:23:36.623Z,19.84
2017-12-21T02:24:04.835Z,19.86
2017-12-21T02:24:33.260Z,19.86
2017-12-21T02:25:01.697Z,19.86
2017-12-21T02:25:30.130Z,19.88
2017-12-21T02:25:59.027Z,19.92
2017-12-21T02:26:29.209Z,19.96
2017-12-21T02:26:57.237Z,19.94
2017-12-21T02:27:54.231Z,19.94
2017-12-21T02:28:25.027Z,19.95
2017-12-21T02:28:53.372Z,19.92
2017-12-21T02:29:21.783Z,19.96
2017-12-21T02:29:50.432Z,19.92
2017-12-21T02:30:18.909Z,19.86
2017-12-21T02:30:46.829Z,19.92
2017-12-21T02:31:14.992Z,19.94
2017-12-21T02:31:43.849Z,19.86
2017-12-21T02:32:12.798Z,19.91
2017-12-21T02:32:41.022Z,19.94
2017-12-21T02:33:09.018Z,19.94
2017-12-21T02:33:37.010Z,19.83
2017-12-21T02:34:05.882Z,19.83
2017-12-21T02:34:34.316Z,19.8
2017-12-21T02:35:02.781Z,19.8
2017-12-21T02:35:31.773Z,19.87
2017-12-21T02:36:00.626Z,19.91
2017-12-21T02:36:45.171Z,19.86
2017-12-21T02:37:13.922Z,19.8
2017-12-21T02:37:41.961Z,19.69
2017-12-21T02:38:42.294Z,19.59
2017-12-21T02:39:11.139Z,19.63
2017-12-21T02:39:39.686Z,19.61
2017-12-21T02:41:06.444Z,19.56
2017-12-21T02:42:46.899Z,19.66
2017-12-21T02:43:15.400Z,19.65
2017-12-21T02:43:43.538Z,19.63
2017-12-21T02:44:12.413Z,19.65
2017-12-21T02:44:40.847Z,19.66
2017-12-21T02:45:10.131Z,19.55
2017-12-21T02:45:38.559Z,19.61
2017-12-21T02:46:07.502Z,19.62
2017-12-21T02:46:35.520Z,19.58
2017-12-21T02:47:03.533Z,19.65
2017-12-21T02:47:32.371Z,19.58
2017-12-21T02:48:14.752Z,19.58
2017-12-21T02:48:42.600Z,19.61
2017-12-21T02:49:10.645Z,19.56
2017-12-21T02:49:53.409Z,19.54
2017-12-21T02:50:36.382Z,19.39
2017-12-21T02:51:04.406Z,19.43
2017-12-21T02:51:32.442Z,19.41
2017-12-21T02:52:01.770Z,19.36
2017-12-21T02:52:29.611Z,19.31
2017-12-21T02:52:58.130Z,19.23
2017-12-21T02:53:26.595Z,19.32
2017-12-21T02:53:54.834Z,19.36
2017-12-21T02:54:22.774Z,19.36
2017-12-21T02:54:51.217Z,19.32
2017-12-21T02:55:19.664Z,19.31
2017-12-21T02:55:48.418Z,19.36
2017-12-21T02:56:16.847Z,19.33
2017-12-21T02:56:46.130Z,19.36
2017-12-21T02:57:15.479Z,19.29
2017-12-21T02:57:43.405Z,19.29
2017-12-21T02:58:12.397Z,19.32
2017-12-21T02:58:44.043Z,19.31
2017-12-21T02:59:12.482Z,19.39
2017-12-21T02:59:40.498Z,19.36
2017-12-21T03:00:09.305Z,19.32
2017-12-21T03:00:38.148Z,19.33
2017-12-21T03:01:06.794Z,19.29
2017-12-21T03:01:34.962Z,19.28
2017-12-21T03:02:02.967Z,19.25
2017-12-21T03:02:32.729Z,19.26
2017-12-21T03:03:01.457Z,19.29
2017-12-21T03:03:30.304Z,19.39
2017-12-21T03:04:23.984Z,19.31
2017-12-21T03:04:51.972Z,19.32
2017-12-21T03:05:20.817Z,19.31
2017-12-21T03:06:47.340Z,19.39
2017-12-21T03:07:16.070Z,19.41
2017-12-21T03:07:44.842Z,19.41
2017-12-21T03:08:12.670Z,19.39
2017-12-21T03:08:40.684Z,19.37
2017-12-21T03:09:08.702Z,19.44
2017-12-21T03:09:37.412Z,19.4
2017-12-21T03:10:05.414Z,19.4
2017-12-21T03:10:33.437Z,19.37
2017-12-21T03:11:30.409Z,19.37
2017-12-21T03:11:59.358Z,19.48
2017-12-21T03:13:37.179Z,19.48
2017-12-21T03:14:05.623Z,19.46
2017-12-21T03:14:33.952Z,19.46
2017-12-21T03:15:07.401Z,19.47
2017-12-21T03:15:35.837Z,19.4
2017-12-21T03:16:03.841Z,19.5
2017-12-21T03:17:00.904Z,19.47
2017-12-21T03:17:29.860Z,19.55
2017-12-21T03:17:58.746Z,19.62
2017-12-21T03:18:42.652Z,19.69
2017-12-21T03:19:10.653Z,19.74
2017-12-21T03:19:39.019Z,19.66
2017-12-21T03:20:22.688Z,19.74
2017-12-21T03:21:05.661Z,19.76
2017-12-21T03:21:35.767Z,19.78
2017-12-21T03:22:04.423Z,19.71
2017-12-21T03:22:35.318Z,19.76
2017-12-21T03:25:32.659Z,19.65
2017-12-21T03:26:01.471Z,19.69
2017-12-21T03:26:30.328Z,19.58
2017-12-21T03:28:20.427Z,19.62
2017-12-21T03:28:48.860Z,19.56
2017-12-21T03:29:16.890Z,19.61
2017-12-21T03:29:45.349Z,19.59
2017-12-21T03:30:13.799Z,19.51
2017-12-21T03:30:41.636Z,19.56
2017-12-21T03:31:54.402Z,19.59
2017-12-21T03:32:22.673Z,19.63
2017-12-21T03:32:51.571Z,19.51
2017-12-21T03:33:20.257Z,19.59
2017-12-21T03:34:45.996Z,19.43
2017-12-21T03:35:14.799Z,19.4
2017-12-21T03:35:43.363Z,19.5
2017-12-21T03:36:11.753Z,19.46
2017-12-21T03:36:40.128Z,19.47
2017-12-21T03:37:37.187Z,19.48
2017-12-21T03:38:08.067Z,19.41
2017-12-21T03:38:51.233Z,19.47
2017-12-21T03:39:20.101Z,19.41
2017-12-21T03:39:48.445Z,19.36
2017-12-21T03:40:16.997Z,19.37
2017-12-21T03:40:45.473Z,19.41
2017-12-21T03:41:14.283Z,19.4
2017-12-21T03:41:43.188Z,19.41
2017-12-21T03:42:11.956Z,19.46
2017-12-21T03:42:40.817Z,19.4
2017-12-21T03:43:08.828Z,19.47
2017-12-21T03:43:51.515Z,19.5
2017-12-21T03:44:20.315Z,19.39
2017-12-21T03:44:49.552Z,19.48
2017-12-21T03:45:17.996Z,19.46
2017-12-21T03:45:45.916Z,19.48
2017-12-21T03:46:15.343Z,19.61
2017-12-21T03:46:43.813Z,19.55
2017-12-21T03:47:12.704Z,19.55
2017-12-21T03:47:41.157Z,19.61
2017-12-21T03:48:10.224Z,19.59
2017-12-21T03:48:39.081Z,19.63
2017-12-21T03:49:08.457Z,19.61
2017-12-21T03:49:51.408Z,19.56
2017-12-21T03:50:20.430Z,19.5
2017-12-21T03:50:49.278Z,19.62
2017-12-21T03:51:17.326Z,19.54
2017-12-21T03:52:58.125Z,19.58
2017-12-21T03:53:27.494Z,19.61
2017-12-21T03:53:55.818Z,19.69
2017-12-21T03:54:24.568Z,19.62
2017-12-21T03:54:53.173Z,19.63
2017-12-21T03:55:21.725Z,19.48
2017-12-21T03:55:50.081Z,19.48
2017-12-21T03:56:33.043Z,19.51
2017-12-21T03:57:01.092Z,19.5
2017-12-21T03:57:30.191Z,19.51
2017-12-21T03:57:58.974Z,19.58
2017-12-21T03:58:28.201Z,19.48
2017-12-21T03:58:59.310Z,19.51
2017-12-21T03:59:27.749Z,19.33
2017-12-21T03:59:56.272Z,19.39
2017-12-21T04:00:24.936Z,19.39
2017-12-21T04:00:54.260Z,19.4
2017-12-21T04:01:24.182Z,19.39
2017-12-21T04:01:53.100Z,19.4
2017-12-21T04:02:24.158Z,19.4
2017-12-21T04:02:52.476Z,19.44
2017-12-21T04:03:21.437Z,19.39
2017-12-21T04:03:50.025Z,19.43
2017-12-21T04:04:19.257Z,19.48
2017-12-21T04:05:17.514Z,19.31
2017-12-21T04:06:00.112Z,19.23
2017-12-21T04:06:29.980Z,19.31
2017-12-21T04:06:58.721Z,19.25
2017-12-21T04:07:26.772Z,19.28
2017-12-21T04:08:53.594Z,19.23
2017-12-21T04:09:28.948Z,19.31
2017-12-21T04:09:56.873Z,19.29
2017-12-21T04:10:26.114Z,19.31
2017-12-21T04:10:54.132Z,19.37
2017-12-21T04:11:22.985Z,19.33
2017-12-21T04:11:52.392Z,19.37
2017-12-21T04:12:20.313Z,19.26
2017-12-21T04:12:48.886Z,19.29
2017-12-21T04:13:43.199Z,19.31
2017-12-21T04:14:25.745Z,19.4
2017-12-21T04:17:33.859Z,19.41
2017-12-21T04:18:02.224Z,19.48
2017-12-21T04:18:31.874Z,19.46
2017-12-21T04:19:00.366Z,19.5
2017-12-21T04:19:29.458Z,19.44
2017-12-21T04:19:59.417Z,19.44
2017-12-21T04:20:28.277Z,19.39
2017-12-21T04:20:56.544Z,19.46
2017-12-21T04:21:25.385Z,19.48
2017-12-21T04:21:53.807Z,19.4
2017-12-21T04:22:22.871Z,19.44
2017-12-21T04:23:06.111Z,19.47
2017-12-21T04:25:15.002Z,19.32
2017-12-21T04:25:50.282Z,19.37
2017-12-21T04:26:18.735Z,19.39
2017-12-21T04:26:47.210Z,19.46
2017-12-21T04:27:15.157Z,19.43
2017-12-21T04:27:43.687Z,19.4
2017-12-21T04:28:54.183Z,19.31
2017-12-21T04:29:22.531Z,19.33
2017-12-21T04:29:50.543Z,19.26
2017-12-21T04:30:19.361Z,19.33
2017-12-21T04:31:31.786Z,19.33
2017-12-21T04:31:59.813Z,19.28
2017-12-21T04:32:28.723Z,19.31
2017-12-21T04:32:57.536Z,19.33
2017-12-21T04:33:26.467Z,19.31
2017-12-21T04:33:55.753Z,19.29
2017-12-21T04:34:24.091Z,19.32
2017-12-21T04:34:52.009Z,19.39
2017-12-21T04:35:20.462Z,19.39
2017-12-21T04:35:49.781Z,19.37
2017-12-21T04:36:34.009Z,19.41
2017-12-21T04:37:02.815Z,19.43
2017-12-21T04:37:31.492Z,19.46
2017-12-21T04:38:00.662Z,19.56
2017-12-21T04:39:26.845Z,19.55
2017-12-21T04:40:38.350Z,19.51
2017-12-21T04:41:35.337Z,19.47
2017-12-21T04:43:30.280Z,19.54
2017-12-21T04:43:58.663Z,19.4
2017-12-21T04:44:30.420Z,19.4
2017-12-21T04:45:41.610Z,19.71
2017-12-21T04:46:11.068Z,19.71
2017-12-21T04:46:39.488Z,19.63
2017-12-21T04:47:07.419Z,19.63
2017-12-21T04:47:35.570Z,19.62
2017-12-21T04:48:04.018Z,19.62
2017-12-21T04:48:32.590Z,19.61
2017-12-21T04:49:02.653Z,19.58
2017-12-21T04:49:31.473Z,19.56
2017-12-21T04:50:00.730Z,19.61
2017-12-21T04:50:28.741Z,19.59
2017-12-21T04:51:12.484Z,19.54
2017-12-21T04:51:51.800Z,19.5
2017-12-21T04:52:21.358Z,19.51
2017-12-21T04:53:05.020Z,19.63
2017-12-21T04:54:02.092Z,19.61
2017-12-21T04:54:32.520Z,19.59
2017-12-21T04:55:14.087Z,19.66
2017-12-21T04:57:08.545Z,19.61
2017-12-21T04:57:52.579Z,19.62
2017-12-21T04:58:21.427Z,19.63
2017-12-21T04:58:51.073Z,19.63
2017-12-21T04:59:20.292Z,19.69
2017-12-21T04:59:48.634Z,19.68
2017-12-21T05:00:18.044Z,19.74
2017-12-21T05:00:46.559Z,19.73
2017-12-21T05:01:14.944Z,19.71
2017-12-21T05:01:58.447Z,19.8
2017-12-21T05:02:27.098Z,19.77
2017-12-21T05:02:55.271Z,19.8
2017-12-21T05:03:24.124Z,19.81
2017-12-21T05:05:05.046Z,19.87
2017-12-21T05:05:47.816Z,19.86
2017-12-21T05:06:59.354Z,19.86
2017-12-21T05:08:11.059Z,19.86
2017-12-21T05:08:39.520Z,19.86
2017-12-21T05:09:07.362Z,19.95
2017-12-21T05:09:36.308Z,19.88
2017-12-21T05:11:35.612Z,19.95
2017-12-21T05:12:18.946Z,20.01
2017-12-21T05:12:47.800Z,19.96
2017-12-21T05:13:17.026Z,20.02
2017-12-21T05:13:45.305Z,19.96
2017-12-21T05:14:28.384Z,19.92
2017-12-21T05:14:57.788Z,20.01
2017-12-21T05:15:26.643Z,19.92
2017-12-21T05:15:55.284Z,20.06
2017-12-21T05:16:53.160Z,20.08
2017-12-21T05:17:21.849Z,19.98
2017-12-21T05:17:51.502Z,20.08
2017-12-21T05:18:19.935Z,20.05
2017-12-21T05:19:03.682Z,20.02
2017-12-21T05:19:46.215Z,20.03
2017-12-21T05:20:29.554Z,20.05
2017-12-21T05:22:24.886Z,20.08
2017-12-21T05:22:53.342Z,20.05
2017-12-21T05:25:03.005Z,19.87
2017-12-21T05:25:45.885Z,19.94
2017-12-21T05:27:25.812Z,19.91
2017-12-21T05:27:54.295Z,20.06
2017-12-21T05:28:23.162Z,20.08
2017-12-21T05:29:35.092Z,20.14
2017-12-21T05:30:05.586Z,20.18
2017-12-21T05:30:34.101Z,20.13
2017-12-21T05:31:02.460Z,20.13
2017-12-21T05:31:31.263Z,20.08
2017-12-21T05:31:59.286Z,20.14
2017-12-21T05:32:27.795Z,20.08
2017-12-21T05:33:10.891Z,20.13
2017-12-21T05:33:39.321Z,20.16
2017-12-21T05:34:07.243Z,20.18
2017-12-21T05:34:36.004Z,20.08
2017-12-21T05:35:17.089Z,20.1
2017-12-21T05:35:45.659Z,20.08
2017-12-21T05:36:15.743Z,20.14
2017-12-21T05:36:45.350Z,20.05
2017-12-21T05:37:14.177Z,20.03
2017-12-21T05:38:40.661Z,20.06
2017-12-21T05:39:15.079Z,20.1
2017-12-21T05:39:43.961Z,20.1
2017-12-21T05:40:12.685Z,20.08
2017-12-21T05:40:41.103Z,20.05
2017-12-21T05:41:09.911Z,20.13
2017-12-21T05:41:37.837Z,20.02
2017-12-21T05:42:49.592Z,20.02
2017-12-21T05:44:02.463Z,19.92
2017-12-21T05:45:00.334Z,19.96
2017-12-21T05:45:29.737Z,19.95
2017-12-21T05:45:57.772Z,19.99
2017-12-21T05:46:25.815Z,19.96
2017-12-21T05:47:08.782Z,19.88
2017-12-21T05:47:40.007Z,20.06
2017-12-21T05:48:23.435Z,20.02
2017-12-21T05:49:10.546Z,20.03
2017-12-21T05:49:39.937Z,19.92
2017-12-21T05:50:08.637Z,19.91
2017-12-21T05:50:38.233Z,20.01
2017-12-21T05:51:06.641Z,19.92
2017-12-21T05:52:32.766Z,20.03
2017-12-21T05:53:01.835Z,20.03
2017-12-21T05:53:31.101Z,19.98
2017-12-21T05:55:54.611Z,19.96
2017-12-21T05:57:20.549Z,20.06
2017-12-21T05:58:03.077Z,20.05
2017-12-21T05:58:31.623Z,20.01
2017-12-21T05:58:59.546Z,20.05
2017-12-21T05:59:29.651Z,20.08
2017-12-21T05:59:57.584Z,20.1
2017-12-21T06:00:55.050Z,20.16
2017-12-21T06:01:28.095Z,20.03
2017-12-21T06:02:13.066Z,20.02
2017-12-21T06:02:41.910Z,20.13
2017-12-21T06:04:07.923Z,20.03
2017-12-21T06:04:46.335Z,20.05
2017-12-21T06:05:15.197Z,20.1
2017-12-21T06:05:44.157Z,20.11
2017-12-21T06:06:12.193Z,20.03
2017-12-21T06:08:35.698Z,20.13
2017-12-21T06:09:47.414Z,20.08
2017-12-21T06:10:21.413Z,20.11
2017-12-21T06:10:50.355Z,20.18
2017-12-21T06:11:19.097Z,20.16
2017-12-21T06:12:30.874Z,20.21
2017-12-21T06:13:09.607Z,20.2
2017-12-21T06:13:37.781Z,20.2
2017-12-21T06:14:36.162Z,20.17
2017-12-21T06:15:34.723Z,20.24
2017-12-21T06:16:03.135Z,20.18
2017-12-21T06:16:32.235Z,20.26
2017-12-21T06:17:00.250Z,20.17
2017-12-21T06:17:28.191Z,20.28
2017-12-21T06:18:11.726Z,20.21
2017-12-21T06:18:55.048Z,20.26
2017-12-21T06:19:24.689Z,20.23
2017-12-21T06:19:53.507Z,20.26
2017-12-21T06:20:36.755Z,20.21
2017-12-21T06:21:19.281Z,20.31
2017-12-21T06:22:01.821Z,20.28
2017-12-21T06:22:30.263Z,20.36
2017-12-21T06:23:42.657Z,20.24
2017-12-21T06:24:25.620Z,20.29
2017-12-21T06:24:53.975Z,20.29
2017-12-21T06:25:24.128Z,20.28
2017-12-21T06:26:21.209Z,20.29
2017-12-21T06:26:49.229Z,20.32
2017-12-21T06:27:17.250Z,20.24
2017-12-21T06:27:45.710Z,20.26
2017-12-21T06:28:14.167Z,20.35
2017-12-21T06:28:42.702Z,20.32
2017-12-21T06:29:56.214Z,20.33
2017-12-21T06:30:26.141Z,20.35
2017-12-21T06:30:54.494Z,20.41
2017-12-21T06:31:22.508Z,20.36
2017-12-21T06:32:05.505Z,20.35
2017-12-21T06:32:49.427Z,20.31
2017-12-21T06:33:20.420Z,20.35
2017-12-21T06:34:17.490Z,20.33
2017-12-21T06:34:46.580Z,20.41
2017-12-21T06:35:57.451Z,20.29
2017-12-21T06:36:26.329Z,20.38
2017-12-21T06:36:54.265Z,20.33
2017-12-21T06:37:23.471Z,20.29
2017-12-21T06:38:49.380Z,20.31
2017-12-21T06:39:32.551Z,20.28
2017-12-21T06:40:01.390Z,20.32
2017-12-21T06:40:45.510Z,20.29
2017-12-21T06:41:28.044Z,20.36
2017-12-21T06:42:26.805Z,20.32
2017-12-21T06:42:55.133Z,20.32
2017-12-21T06:43:38.078Z,20.35
2017-12-21T06:44:06.009Z,20.33
2017-12-21T06:44:34.461Z,20.32
2017-12-21T06:45:02.875Z,20.33
2017-12-21T06:45:48.868Z,20.31
2017-12-21T06:46:17.483Z,20.29
2017-12-21T06:46:46.178Z,20.33
2017-12-21T06:47:25.996Z,20.31
2017-12-21T06:48:52.812Z,20.23
2017-12-21T06:49:21.401Z,20.28
2017-12-21T06:49:49.404Z,20.33
2017-12-21T06:50:19.493Z,20.17
2017-12-21T06:50:47.939Z,20.29
2017-12-21T06:51:30.981Z,20.16
2017-12-21T06:51:59.317Z,20.02
2017-12-21T06:52:27.266Z,20.06
2017-12-21T06:52:56.753Z,20.06
2017-12-21T06:53:29.548Z,20.13
2017-12-21T06:53:58.686Z,20.17
2017-12-21T06:54:41.467Z,20.16
2017-12-21T06:55:25.410Z,20.11
2017-12-21T06:55:54.829Z,20.14
2017-12-21T06:56:37.374Z,20.17
2017-12-21T06:58:04.500Z,20.29
2017-12-21T06:58:48.776Z,20.24
2017-12-21T06:59:17.162Z,20.28
2017-12-21T06:59:59.609Z,20.26
2017-12-21T07:00:28.266Z,20.26
2017-12-21T07:00:56.689Z,20.26
2017-12-21T07:01:46.135Z,20.24
2017-12-21T07:02:14.783Z,20.31
2017-12-21T07:02:43.427Z,20.23
2017-12-21T07:03:26.742Z,20.21
2017-12-21T07:04:53.147Z,20.28
2017-12-21T07:05:22.528Z,20.26
2017-12-21T07:05:50.940Z,20.24
2017-12-21T07:06:20.215Z,20.18
2017-12-21T07:06:48.228Z,20.24
2017-12-21T07:08:46.979Z,20.28
2017-12-21T07:09:15.002Z,20.35
2017-12-21T07:09:43.826Z,20.29
2017-12-21T07:10:12.383Z,20.28
2017-12-21T07:10:40.809Z,20.28
2017-12-21T07:11:08.755Z,20.31
2017-12-21T07:11:38.877Z,20.26
2017-12-21T07:12:07.834Z,20.28
2017-12-21T07:12:36.991Z,20.35
2017-12-21T07:13:04.996Z,20.38
2017-12-21T07:13:33.584Z,20.36
2017-12-21T07:14:16.132Z,20.38
2017-12-21T07:14:46.080Z,20.32
2017-12-21T07:15:16.096Z,20.23
2017-12-21T07:15:44.851Z,20.28
2017-12-21T07:16:13.008Z,20.28
2017-12-21T07:16:41.709Z,20.41
2017-12-21T07:17:10.053Z,20.35
2017-12-21T07:17:38.089Z,20.31
2017-12-21T07:18:06.123Z,20.33
2017-12-21T07:18:34.982Z,20.31
2017-12-21T07:19:02.939Z,20.31
2017-12-21T07:20:29.821Z,20.29
2017-12-21T07:21:14.152Z,20.31
2017-12-21T07:21:57.457Z,20.38
2017-12-21T07:22:46.283Z,20.33
2017-12-21T07:23:30.184Z,20.36
2017-12-21T07:24:42.565Z,20.35
2017-12-21T07:26:29.214Z,20.29
2017-12-21T07:28:14.315Z,20.26
2017-12-21T07:28:44.580Z,20.26
2017-12-21T07:29:28.112Z,20.23
2017-12-21T07:32:12.395Z,20.32
2017-12-21T07:32:40.965Z,20.38
2017-12-21T07:34:50.575Z,20.21
2017-12-21T07:35:20.023Z,20.24
2017-12-21T07:36:02.791Z,20.28
2017-12-21T07:36:32.387Z,20.29
2017-12-21T07:37:00.888Z,20.28
2017-12-21T07:37:30.051Z,20.24
2017-12-21T07:37:59.354Z,20.28
2017-12-21T07:38:28.076Z,20.23
2017-12-21T07:39:10.603Z,20.33
2017-12-21T07:39:39.831Z,20.38
2017-12-21T07:40:22.413Z,20.29
2017-12-21T07:40:50.842Z,20.36
2017-12-21T07:41:18.841Z,20.33
2017-12-21T07:41:52.730Z,20.36
2017-12-21T07:42:20.956Z,20.33
2017-12-21T07:42:48.898Z,20.35
2017-12-21T07:43:16.921Z,20.31
2017-12-21T07:43:59.874Z,20.32
2017-12-21T07:45:10.874Z,20.33
2017-12-21T07:45:39.310Z,20.33
2017-12-21T07:46:07.218Z,20.32
2017-12-21T07:46:36.092Z,20.36
2017-12-21T07:47:04.964Z,20.31
2017-12-21T07:47:47.499Z,20.31
2017-12-21T07:49:12.381Z,20.33
2017-12-21T07:50:09.986Z,20.35
2017-12-21T07:50:38.582Z,20.39
2017-12-21T07:51:07.030Z,20.35
2017-12-21T07:51:34.984Z,20.32
2017-12-21T07:52:03.914Z,20.32
2017-12-21T07:53:15.957Z,20.29
2017-12-21T07:53:46.339Z,20.33
2017-12-21T07:54:29.276Z,20.38
2017-12-21T07:56:11.266Z,20.31
2017-12-21T07:56:41.478Z,20.33
2017-12-21T07:57:24.000Z,20.26
2017-12-21T07:58:06.958Z,20.29
2017-12-21T08:00:15.427Z,20.33
2017-12-21T08:00:57.972Z,20.33
2017-12-21T08:01:40.518Z,20.36
2017-12-21T08:02:23.596Z,20.35
2017-12-21T08:03:07.405Z,20.35
2017-12-21T08:04:04.386Z,20.33
2017-12-21T08:04:47.691Z,20.23
2017-12-21T08:06:00.914Z,20.14
2017-12-21T08:06:45.442Z,20.29
2017-12-21T08:08:37.215Z,20.48
2017-12-21T08:10:02.240Z,20.5
2017-12-21T08:11:59.364Z,20.55
2017-12-21T08:12:28.898Z,20.57
2017-12-21T08:12:57.347Z,20.58
2017-12-21T08:13:40.238Z,20.58
2017-12-21T08:14:23.360Z,20.55
2017-12-21T08:14:52.045Z,20.52
2017-12-21T08:15:20.726Z,20.51
2017-12-21T08:15:49.978Z,20.67
2017-12-21T08:16:19.419Z,20.57
2017-12-21T08:16:47.870Z,20.62
2017-12-21T08:17:16.336Z,20.69